sensor_id;sensor_type;location;lat;lon;timestamp;P1;durP1;ratioP1;P2;durP2;ratioP2
28335;SDS011;15592;53.656;7.276;2023-07-29T00:01:50;5.45;;;4.95;;
28335;SDS011;15592;53.656;7.276;2023-07-29T00:04:16;5.13;;;4.60;;
28335;SDS011;15592;53.656;7.276;2023-07-29T00:06:42;5.18;;;4.50;;
28335;SDS011;15592;53.656;7.276;2023-07-29T00:09:07;5.38;;;4.68;;
28335;SDS011;15592;53.656;7.276;2023-07-29T00:11:33;5.68;;;4.95;;
28335;SDS011;15592;53.656;7.276;2023-07-29T00:14:00;5.18;;;4.68;;
28335;SDS011;15592;53.656;7.276;2023-07-29T00:16:26;5.32;;;4.82;;
28335;SDS011;15592;53.656;7.276;2023-07-29T00:18:52;4.93;;;4.45;;
28335;SDS011;15592;53.656;7.276;2023-07-29T00:21:17;4.75;;;4.15;;
28335;SDS011;15592;53.656;7.276;2023-07-29T00:23:43;5.22;;;4.72;;
28335;SDS011;15592;53.656;7.276;2023-07-29T00:26:09;5.40;;;4.88;;
28335;SDS011;15592;53.656;7.276;2023-07-29T00:28:35;5.20;;;4.50;;
28335;SDS011;15592;53.656;7.276;2023-07-29T00:31:01;4.93;;;4.43;;
28335;SDS011;15592;53.656;7.276;2023-07-29T00:33:27;4.90;;;4.50;;
28335;SDS011;15592;53.656;7.276;2023-07-29T00:35:52;5.82;;;5.22;;
28335;SDS011;15592;53.656;7.276;2023-07-29T00:38:18;5.88;;;5.25;;
28335;SDS011;15592;53.656;7.276;2023-07-29T00:40:44;6.20;;;5.47;;
28335;SDS011;15592;53.656;7.276;2023-07-29T00:43:09;6.50;;;5.90;;
28335;SDS011;15592;53.656;7.276;2023-07-29T00:45:35;6.22;;;5.53;;
28335;SDS011;15592;53.656;7.276;2023-07-29T00:48:01;6.50;;;5.80;;
28335;SDS011;15592;53.656;7.276;2023-07-29T00:50:28;6.80;;;5.50;;
28335;SDS011;15592;53.656;7.276;2023-07-29T00:52:55;5.97;;;5.38;;
28335;SDS011;15592;53.656;7.276;2023-07-29T00:55:21;6.07;;;5.38;;
28335;SDS011;15592;53.656;7.276;2023-07-29T00:57:47;6.43;;;5.57;;
28335;SDS011;15592;53.656;7.276;2023-07-29T01:00:15;6.43;;;5.80;;
28335;SDS011;15592;53.656;7.276;2023-07-29T01:02:42;10.27;;;6.28;;
28335;SDS011;15592;53.656;7.276;2023-07-29T01:05:08;7.55;;;6.72;;
28335;SDS011;15592;53.656;7.276;2023-07-29T01:10:25;7.47;;;5.75;;
28335;SDS011;15592;53.656;7.276;2023-07-29T01:13:06;6.55;;;5.85;;
28335;SDS011;15592;53.656;7.276;2023-07-29T01:18:21;5.57;;;5.03;;
28335;SDS011;15592;53.656;7.276;2023-07-29T01:20:58;5.95;;;5.25;;
28335;SDS011;15592;53.656;7.276;2023-07-29T01:23:30;7.18;;;5.57;;
28335;SDS011;15592;53.656;7.276;2023-07-29T01:25:56;6.72;;;5.78;;
28335;SDS011;15592;53.656;7.276;2023-07-29T01:28:21;6.55;;;5.68;;
28335;SDS011;15592;53.656;7.276;2023-07-29T01:30:49;5.72;;;4.95;;
28335;SDS011;15592;53.656;7.276;2023-07-29T01:33:20;6.13;;;5.25;;
28335;SDS011;15592;53.656;7.276;2023-07-29T01:36:03;6.03;;;5.43;;
28335;SDS011;15592;53.656;7.276;2023-07-29T01:38:36;8.77;;;6.90;;
28335;SDS011;15592;53.656;7.276;2023-07-29T01:41:06;9.45;;;7.70;;
28335;SDS011;15592;53.656;7.276;2023-07-29T01:43:33;10.73;;;8.35;;
28335;SDS011;15592;53.656;7.276;2023-07-29T01:46:04;10.18;;;8.15;;
28335;SDS011;15592;53.656;7.276;2023-07-29T01:48:30;10.25;;;8.07;;
28335;SDS011;15592;53.656;7.276;2023-07-29T01:50:57;11.65;;;9.18;;
28335;SDS011;15592;53.656;7.276;2023-07-29T01:53:22;11.80;;;9.00;;
28335;SDS011;15592;53.656;7.276;2023-07-29T01:55:48;12.77;;;9.95;;
28335;SDS011;15592;53.656;7.276;2023-07-29T01:58:14;13.32;;;10.15;;
28335;SDS011;15592;53.656;7.276;2023-07-29T02:00:40;12.52;;;9.43;;
28335;SDS011;15592;53.656;7.276;2023-07-29T02:03:05;11.60;;;9.38;;
28335;SDS011;15592;53.656;7.276;2023-07-29T02:05:31;11.43;;;9.15;;
28335;SDS011;15592;53.656;7.276;2023-07-29T02:07:57;12.73;;;9.25;;
28335;SDS011;15592;53.656;7.276;2023-07-29T02:10:22;12.18;;;9.20;;
28335;SDS011;15592;53.656;7.276;2023-07-29T02:12:48;14.65;;;10.15;;
28335;SDS011;15592;53.656;7.276;2023-07-29T02:15:13;12.15;;;9.52;;
28335;SDS011;15592;53.656;7.276;2023-07-29T02:17:42;9.95;;;8.48;;
28335;SDS011;15592;53.656;7.276;2023-07-29T02:20:08;12.05;;;9.40;;
28335;SDS011;15592;53.656;7.276;2023-07-29T02:22:35;11.45;;;9.38;;
28335;SDS011;15592;53.656;7.276;2023-07-29T02:25:01;14.48;;;10.13;;
28335;SDS011;15592;53.656;7.276;2023-07-29T02:27:27;12.25;;;9.88;;
28335;SDS011;15592;53.656;7.276;2023-07-29T02:29:53;12.38;;;9.50;;
28335;SDS011;15592;53.656;7.276;2023-07-29T02:32:20;11.73;;;9.30;;
28335;SDS011;15592;53.656;7.276;2023-07-29T02:34:46;13.57;;;9.88;;
28335;SDS011;15592;53.656;7.276;2023-07-29T02:37:11;16.05;;;10.88;;
28335;SDS011;15592;53.656;7.276;2023-07-29T02:39:37;13.23;;;10.48;;
28335;SDS011;15592;53.656;7.276;2023-07-29T02:42:03;14.15;;;10.27;;
28335;SDS011;15592;53.656;7.276;2023-07-29T02:44:29;14.77;;;10.13;;
28335;SDS011;15592;53.656;7.276;2023-07-29T02:46:55;13.23;;;9.70;;
28335;SDS011;15592;53.656;7.276;2023-07-29T02:49:21;13.25;;;10.45;;
28335;SDS011;15592;53.656;7.276;2023-07-29T02:51:48;13.70;;;10.40;;
28335;SDS011;15592;53.656;7.276;2023-07-29T02:54:14;13.95;;;10.27;;
28335;SDS011;15592;53.656;7.276;2023-07-29T02:56:39;16.20;;;10.75;;
28335;SDS011;15592;53.656;7.276;2023-07-29T02:59:05;15.38;;;11.05;;
28335;SDS011;15592;53.656;7.276;2023-07-29T03:01:31;14.85;;;10.80;;
28335;SDS011;15592;53.656;7.276;2023-07-29T03:03:56;13.80;;;10.20;;
28335;SDS011;15592;53.656;7.276;2023-07-29T03:06:22;15.27;;;11.38;;
28335;SDS011;15592;53.656;7.276;2023-07-29T03:08:48;15.60;;;11.15;;
28335;SDS011;15592;53.656;7.276;2023-07-29T03:11:15;15.85;;;11.00;;
28335;SDS011;15592;53.656;7.276;2023-07-29T03:13:41;14.80;;;10.73;;
28335;SDS011;15592;53.656;7.276;2023-07-29T03:16:11;15.57;;;10.52;;
28335;SDS011;15592;53.656;7.276;2023-07-29T03:18:38;15.48;;;11.35;;
28335;SDS011;15592;53.656;7.276;2023-07-29T03:21:05;16.05;;;11.30;;
28335;SDS011;15592;53.656;7.276;2023-07-29T03:23:31;17.25;;;12.32;;
28335;SDS011;15592;53.656;7.276;2023-07-29T03:25:58;17.50;;;11.82;;
28335;SDS011;15592;53.656;7.276;2023-07-29T03:28:28;14.93;;;11.15;;
28335;SDS011;15592;53.656;7.276;2023-07-29T03:30:57;15.45;;;11.15;;
28335;SDS011;15592;53.656;7.276;2023-07-29T03:33:24;14.13;;;10.13;;
28335;SDS011;15592;53.656;7.276;2023-07-29T03:35:50;13.40;;;10.63;;
28335;SDS011;15592;53.656;7.276;2023-07-29T03:38:16;14.15;;;10.27;;
28335;SDS011;15592;53.656;7.276;2023-07-29T03:40:42;13.07;;;10.07;;
28335;SDS011;15592;53.656;7.276;2023-07-29T03:43:07;14.00;;;10.20;;
28335;SDS011;15592;53.656;7.276;2023-07-29T03:45:33;15.93;;;11.13;;
28335;SDS011;15592;53.656;7.276;2023-07-29T03:48:00;17.10;;;11.77;;
28335;SDS011;15592;53.656;7.276;2023-07-29T03:50:26;16.52;;;11.63;;
28335;SDS011;15592;53.656;7.276;2023-07-29T03:52:52;18.30;;;12.25;;
28335;SDS011;15592;53.656;7.276;2023-07-29T03:55:18;17.05;;;12.27;;
28335;SDS011;15592;53.656;7.276;2023-07-29T03:57:43;19.35;;;12.93;;
28335;SDS011;15592;53.656;7.276;2023-07-29T04:00:09;17.50;;;12.15;;
28335;SDS011;15592;53.656;7.276;2023-07-29T04:02:35;16.83;;;11.15;;
28335;SDS011;15592;53.656;7.276;2023-07-29T04:05:04;17.80;;;12.18;;
28335;SDS011;15592;53.656;7.276;2023-07-29T04:07:33;17.58;;;11.57;;
28335;SDS011;15592;53.656;7.276;2023-07-29T04:09:59;16.65;;;11.90;;
28335;SDS011;15592;53.656;7.276;2023-07-29T04:12:26;18.25;;;11.98;;
28335;SDS011;15592;53.656;7.276;2023-07-29T04:14:52;16.52;;;11.13;;
28335;SDS011;15592;53.656;7.276;2023-07-29T04:17:17;13.75;;;9.77;;
28335;SDS011;15592;53.656;7.276;2023-07-29T04:19:43;13.70;;;10.02;;
28335;SDS011;15592;53.656;7.276;2023-07-29T04:22:09;12.88;;;9.45;;
28335;SDS011;15592;53.656;7.276;2023-07-29T04:24:35;13.15;;;9.65;;
28335;SDS011;15592;53.656;7.276;2023-07-29T04:27:00;13.38;;;9.20;;
28335;SDS011;15592;53.656;7.276;2023-07-29T04:29:26;13.25;;;9.48;;
28335;SDS011;15592;53.656;7.276;2023-07-29T04:31:52;13.45;;;9.65;;
28335;SDS011;15592;53.656;7.276;2023-07-29T04:34:18;13.23;;;9.07;;
28335;SDS011;15592;53.656;7.276;2023-07-29T04:36:44;13.13;;;9.50;;
28335;SDS011;15592;53.656;7.276;2023-07-29T04:39:11;12.80;;;9.80;;
28335;SDS011;15592;53.656;7.276;2023-07-29T04:41:37;12.10;;;9.38;;
28335;SDS011;15592;53.656;7.276;2023-07-29T04:44:02;15.10;;;9.77;;
28335;SDS011;15592;53.656;7.276;2023-07-29T04:46:28;14.50;;;10.25;;
28335;SDS011;15592;53.656;7.276;2023-07-29T04:48:54;14.57;;;10.93;;
28335;SDS011;15592;53.656;7.276;2023-07-29T04:51:19;16.67;;;11.27;;
28335;SDS011;15592;53.656;7.276;2023-07-29T04:53:45;14.45;;;10.90;;
28335;SDS011;15592;53.656;7.276;2023-07-29T04:56:11;15.00;;;10.50;;
28335;SDS011;15592;53.656;7.276;2023-07-29T04:58:37;16.58;;;10.70;;
28335;SDS011;15592;53.656;7.276;2023-07-29T05:01:03;15.65;;;11.13;;
28335;SDS011;15592;53.656;7.276;2023-07-29T05:03:29;15.52;;;10.90;;
28335;SDS011;15592;53.656;7.276;2023-07-29T05:05:55;14.48;;;10.35;;
28335;SDS011;15592;53.656;7.276;2023-07-29T05:08:22;13.65;;;9.43;;
28335;SDS011;15592;53.656;7.276;2023-07-29T05:10:51;14.45;;;10.38;;
28335;SDS011;15592;53.656;7.276;2023-07-29T05:13:18;16.48;;;10.35;;
28335;SDS011;15592;53.656;7.276;2023-07-29T05:15:44;14.32;;;10.43;;
28335;SDS011;15592;53.656;7.276;2023-07-29T05:18:09;16.23;;;11.13;;
28335;SDS011;15592;53.656;7.276;2023-07-29T05:20:35;16.80;;;11.43;;
28335;SDS011;15592;53.656;7.276;2023-07-29T05:23:01;18.95;;;11.77;;
28335;SDS011;15592;53.656;7.276;2023-07-29T05:25:27;16.58;;;11.38;;
28335;SDS011;15592;53.656;7.276;2023-07-29T05:27:54;16.38;;;11.45;;
28335;SDS011;15592;53.656;7.276;2023-07-29T05:30:19;18.20;;;11.38;;
28335;SDS011;15592;53.656;7.276;2023-07-29T05:32:45;15.38;;;10.25;;
28335;SDS011;15592;53.656;7.276;2023-07-29T05:35:11;15.82;;;10.75;;
28335;SDS011;15592;53.656;7.276;2023-07-29T05:37:40;15.13;;;10.63;;
28335;SDS011;15592;53.656;7.276;2023-07-29T05:40:06;15.63;;;10.40;;
28335;SDS011;15592;53.656;7.276;2023-07-29T05:42:33;14.30;;;10.18;;
28335;SDS011;15592;53.656;7.276;2023-07-29T05:44:59;13.90;;;9.52;;
28335;SDS011;15592;53.656;7.276;2023-07-29T05:47:25;12.15;;;8.50;;
28335;SDS011;15592;53.656;7.276;2023-07-29T05:49:51;12.07;;;8.65;;
28335;SDS011;15592;53.656;7.276;2023-07-29T05:52:17;11.00;;;7.72;;
28335;SDS011;15592;53.656;7.276;2023-07-29T05:54:43;11.00;;;7.00;;
28335;SDS011;15592;53.656;7.276;2023-07-29T05:57:09;9.70;;;7.22;;
28335;SDS011;15592;53.656;7.276;2023-07-29T05:59:35;11.20;;;7.47;;
28335;SDS011;15592;53.656;7.276;2023-07-29T06:02:00;12.50;;;7.85;;
28335;SDS011;15592;53.656;7.276;2023-07-29T06:04:26;9.05;;;6.63;;
28335;SDS011;15592;53.656;7.276;2023-07-29T06:06:52;7.82;;;6.00;;
28335;SDS011;15592;53.656;7.276;2023-07-29T06:09:17;12.07;;;7.40;;
28335;SDS011;15592;53.656;7.276;2023-07-29T06:11:43;8.52;;;5.53;;
28335;SDS011;15592;53.656;7.276;2023-07-29T06:14:09;7.63;;;5.28;;
28335;SDS011;15592;53.656;7.276;2023-07-29T06:16:34;7.68;;;5.40;;
28335;SDS011;15592;53.656;7.276;2023-07-29T06:19:00;8.05;;;5.45;;
28335;SDS011;15592;53.656;7.276;2023-07-29T06:21:25;6.82;;;4.75;;
28335;SDS011;15592;53.656;7.276;2023-07-29T06:23:51;6.60;;;4.78;;
28335;SDS011;15592;53.656;7.276;2023-07-29T06:26:17;7.63;;;5.10;;
28335;SDS011;15592;53.656;7.276;2023-07-29T06:28:42;7.28;;;4.97;;
28335;SDS011;15592;53.656;7.276;2023-07-29T06:31:08;9.02;;;5.43;;
28335;SDS011;15592;53.656;7.276;2023-07-29T06:33:34;7.18;;;5.38;;
28335;SDS011;15592;53.656;7.276;2023-07-29T06:35:59;7.05;;;5.20;;
28335;SDS011;15592;53.656;7.276;2023-07-29T06:38:25;7.25;;;5.18;;
28335;SDS011;15592;53.656;7.276;2023-07-29T06:40:50;9.35;;;5.72;;
28335;SDS011;15592;53.656;7.276;2023-07-29T06:43:17;8.63;;;5.90;;
28335;SDS011;15592;53.656;7.276;2023-07-29T06:45:43;8.60;;;5.32;;
28335;SDS011;15592;53.656;7.276;2023-07-29T06:48:08;7.45;;;4.97;;
28335;SDS011;15592;53.656;7.276;2023-07-29T06:50:34;6.10;;;4.13;;
28335;SDS011;15592;53.656;7.276;2023-07-29T06:53:00;5.50;;;4.63;;
28335;SDS011;15592;53.656;7.276;2023-07-29T06:55:25;4.97;;;3.72;;
28335;SDS011;15592;53.656;7.276;2023-07-29T06:57:51;8.88;;;4.28;;
28335;SDS011;15592;53.656;7.276;2023-07-29T07:00:17;6.75;;;4.20;;
28335;SDS011;15592;53.656;7.276;2023-07-29T07:02:42;8.52;;;4.47;;
28335;SDS011;15592;53.656;7.276;2023-07-29T07:05:08;7.97;;;4.28;;
28335;SDS011;15592;53.656;7.276;2023-07-29T07:07:34;8.77;;;3.70;;
28335;SDS011;15592;53.656;7.276;2023-07-29T07:10:00;8.70;;;4.30;;
28335;SDS011;15592;53.656;7.276;2023-07-29T07:12:25;7.75;;;4.18;;
28335;SDS011;15592;53.656;7.276;2023-07-29T07:14:51;6.72;;;3.90;;
28335;SDS011;15592;53.656;7.276;2023-07-29T07:17:17;6.65;;;4.32;;
28335;SDS011;15592;53.656;7.276;2023-07-29T07:19:43;5.22;;;3.83;;
28335;SDS011;15592;53.656;7.276;2023-07-29T07:22:09;5.40;;;3.65;;
28335;SDS011;15592;53.656;7.276;2023-07-29T07:24:34;6.57;;;3.75;;
28335;SDS011;15592;53.656;7.276;2023-07-29T07:27:00;7.20;;;3.90;;
28335;SDS011;15592;53.656;7.276;2023-07-29T07:29:27;5.35;;;4.07;;
28335;SDS011;15592;53.656;7.276;2023-07-29T07:31:53;7.03;;;3.80;;
28335;SDS011;15592;53.656;7.276;2023-07-29T07:34:19;6.07;;;3.70;;
28335;SDS011;15592;53.656;7.276;2023-07-29T07:36:46;8.45;;;3.70;;
28335;SDS011;15592;53.656;7.276;2023-07-29T07:39:12;5.47;;;3.45;;
28335;SDS011;15592;53.656;7.276;2023-07-29T07:41:38;5.63;;;3.45;;
28335;SDS011;15592;53.656;7.276;2023-07-29T07:44:03;7.25;;;4.03;;
28335;SDS011;15592;53.656;7.276;2023-07-29T07:46:29;6.28;;;3.50;;
28335;SDS011;15592;53.656;7.276;2023-07-29T07:48:54;6.30;;;3.40;;
28335;SDS011;15592;53.656;7.276;2023-07-29T07:51:20;7.53;;;3.63;;
28335;SDS011;15592;53.656;7.276;2023-07-29T07:53:46;6.13;;;3.40;;
28335;SDS011;15592;53.656;7.276;2023-07-29T07:56:11;5.53;;;3.55;;
28335;SDS011;15592;53.656;7.276;2023-07-29T07:58:37;8.00;;;4.13;;
28335;SDS011;15592;53.656;7.276;2023-07-29T08:01:03;4.05;;;3.03;;
28335;SDS011;15592;53.656;7.276;2023-07-29T08:03:30;7.07;;;3.40;;
28335;SDS011;15592;53.656;7.276;2023-07-29T08:05:56;6.13;;;3.03;;
28335;SDS011;15592;53.656;7.276;2023-07-29T08:08:22;4.75;;;2.78;;
28335;SDS011;15592;53.656;7.276;2023-07-29T08:10:47;6.38;;;3.60;;
28335;SDS011;15592;53.656;7.276;2023-07-29T08:13:13;7.47;;;3.83;;
28335;SDS011;15592;53.656;7.276;2023-07-29T08:15:38;5.47;;;3.30;;
28335;SDS011;15592;53.656;7.276;2023-07-29T08:18:06;4.45;;;2.90;;
28335;SDS011;15592;53.656;7.276;2023-07-29T08:20:31;5.53;;;3.60;;
28335;SDS011;15592;53.656;7.276;2023-07-29T08:22:57;4.30;;;2.97;;
28335;SDS011;15592;53.656;7.276;2023-07-29T08:25:23;4.05;;;3.03;;
28335;SDS011;15592;53.656;7.276;2023-07-29T08:27:49;6.15;;;3.40;;
28335;SDS011;15592;53.656;7.276;2023-07-29T08:30:14;5.40;;;3.13;;
28335;SDS011;15592;53.656;7.276;2023-07-29T08:32:41;5.78;;;3.65;;
28335;SDS011;15592;53.656;7.276;2023-07-29T08:35:07;6.13;;;3.55;;
28335;SDS011;15592;53.656;7.276;2023-07-29T08:37:33;4.88;;;3.40;;
28335;SDS011;15592;53.656;7.276;2023-07-29T08:39:58;5.38;;;3.38;;
28335;SDS011;15592;53.656;7.276;2023-07-29T08:42:26;6.90;;;3.72;;
28335;SDS011;15592;53.656;7.276;2023-07-29T08:44:56;6.75;;;3.67;;
28335;SDS011;15592;53.656;7.276;2023-07-29T08:47:26;3.70;;;3.00;;
28335;SDS011;15592;53.656;7.276;2023-07-29T08:49:52;5.53;;;3.10;;
28335;SDS011;15592;53.656;7.276;2023-07-29T08:52:19;9.20;;;4.20;;
28335;SDS011;15592;53.656;7.276;2023-07-29T08:54:45;7.15;;;3.92;;
28335;SDS011;15592;53.656;7.276;2023-07-29T08:57:12;7.07;;;4.43;;
28335;SDS011;15592;53.656;7.276;2023-07-29T08:59:39;5.70;;;4.28;;
28335;SDS011;15592;53.656;7.276;2023-07-29T09:02:05;6.25;;;4.40;;
28335;SDS011;15592;53.656;7.276;2023-07-29T09:04:31;6.18;;;3.67;;
28335;SDS011;15592;53.656;7.276;2023-07-29T09:06:57;7.25;;;3.95;;
28335;SDS011;15592;53.656;7.276;2023-07-29T09:09:25;7.60;;;4.15;;
28335;SDS011;15592;53.656;7.276;2023-07-29T09:11:50;5.78;;;3.55;;
28335;SDS011;15592;53.656;7.276;2023-07-29T09:14:16;6.60;;;4.50;;
28335;SDS011;15592;53.656;7.276;2023-07-29T09:16:42;5.25;;;3.60;;
28335;SDS011;15592;53.656;7.276;2023-07-29T09:19:08;6.15;;;3.47;;
28335;SDS011;15592;53.656;7.276;2023-07-29T09:21:34;5.80;;;4.43;;
28335;SDS011;15592;53.656;7.276;2023-07-29T09:24:04;9.75;;;4.85;;
28335;SDS011;15592;53.656;7.276;2023-07-29T09:26:32;6.18;;;4.13;;
28335;SDS011;15592;53.656;7.276;2023-07-29T09:28:58;5.40;;;3.78;;
28335;SDS011;15592;53.656;7.276;2023-07-29T09:31:26;5.35;;;4.32;;
28335;SDS011;15592;53.656;7.276;2023-07-29T09:33:58;6.13;;;4.80;;
28335;SDS011;15592;53.656;7.276;2023-07-29T09:36:25;7.93;;;4.85;;
28335;SDS011;15592;53.656;7.276;2023-07-29T09:38:52;7.15;;;4.75;;
28335;SDS011;15592;53.656;7.276;2023-07-29T09:41:21;6.07;;;3.92;;
28335;SDS011;15592;53.656;7.276;2023-07-29T09:43:57;5.82;;;4.03;;
28335;SDS011;15592;53.656;7.276;2023-07-29T09:46:36;6.03;;;3.97;;
28335;SDS011;15592;53.656;7.276;2023-07-29T09:49:06;5.63;;;3.97;;
28335;SDS011;15592;53.656;7.276;2023-07-29T09:51:36;5.90;;;3.72;;
28335;SDS011;15592;53.656;7.276;2023-07-29T09:54:05;5.47;;;3.70;;
28335;SDS011;15592;53.656;7.276;2023-07-29T09:56:32;5.50;;;3.78;;
28335;SDS011;15592;53.656;7.276;2023-07-29T09:58:57;4.78;;;3.50;;
28335;SDS011;15592;53.656;7.276;2023-07-29T10:01:23;5.25;;;3.25;;
28335;SDS011;15592;53.656;7.276;2023-07-29T10:03:50;3.67;;;3.25;;
28335;SDS011;15592;53.656;7.276;2023-07-29T10:06:16;5.32;;;3.72;;
28335;SDS011;15592;53.656;7.276;2023-07-29T10:08:43;5.57;;;4.07;;
28335;SDS011;15592;53.656;7.276;2023-07-29T10:11:10;5.63;;;3.15;;
28335;SDS011;15592;53.656;7.276;2023-07-29T10:13:36;4.35;;;2.90;;
28335;SDS011;15592;53.656;7.276;2023-07-29T10:16:03;7.45;;;3.58;;
28335;SDS011;15592;53.656;7.276;2023-07-29T10:18:30;6.22;;;3.40;;
28335;SDS011;15592;53.656;7.276;2023-07-29T10:20:57;5.22;;;2.75;;
28335;SDS011;15592;53.656;7.276;2023-07-29T10:23:25;5.80;;;3.05;;
28335;SDS011;15592;53.656;7.276;2023-07-29T10:25:54;4.22;;;2.70;;
28335;SDS011;15592;53.656;7.276;2023-07-29T10:28:30;5.65;;;2.92;;
28335;SDS011;15592;53.656;7.276;2023-07-29T10:30:57;6.90;;;3.35;;
28335;SDS011;15592;53.656;7.276;2023-07-29T10:33:24;4.35;;;2.75;;
28335;SDS011;15592;53.656;7.276;2023-07-29T10:35:51;6.28;;;3.20;;
28335;SDS011;15592;53.656;7.276;2023-07-29T10:38:19;4.80;;;2.97;;
28335;SDS011;15592;53.656;7.276;2023-07-29T10:40:53;4.38;;;2.90;;
28335;SDS011;15592;53.656;7.276;2023-07-29T10:43:25;8.98;;;3.85;;
28335;SDS011;15592;53.656;7.276;2023-07-29T10:45:57;5.78;;;3.38;;
28335;SDS011;15592;53.656;7.276;2023-07-29T10:48:40;3.70;;;2.85;;
28335;SDS011;15592;53.656;7.276;2023-07-29T10:51:40;6.13;;;3.13;;
28335;SDS011;15592;53.656;7.276;2023-07-29T10:54:18;5.40;;;3.13;;
28335;SDS011;15592;53.656;7.276;2023-07-29T10:56:48;3.67;;;3.05;;
28335;SDS011;15592;53.656;7.276;2023-07-29T11:01:42;6.60;;;2.78;;
28335;SDS011;15592;53.656;7.276;2023-07-29T11:17:41;3.50;;;2.63;;
28335;SDS011;15592;53.656;7.276;2023-07-29T11:20:11;3.78;;;2.17;;
28335;SDS011;15592;53.656;7.276;2023-07-29T11:22:38;3.33;;;2.13;;
28335;SDS011;15592;53.656;7.276;2023-07-29T11:25:04;5.10;;;2.42;;
28335;SDS011;15592;53.656;7.276;2023-07-29T11:27:32;3.72;;;2.17;;
28335;SDS011;15592;53.656;7.276;2023-07-29T11:29:58;4.68;;;1.98;;
28335;SDS011;15592;53.656;7.276;2023-07-29T11:32:25;4.22;;;2.30;;
28335;SDS011;15592;53.656;7.276;2023-07-29T11:34:51;3.17;;;1.95;;
28335;SDS011;15592;53.656;7.276;2023-07-29T11:37:17;5.28;;;2.40;;
28335;SDS011;15592;53.656;7.276;2023-07-29T11:39:43;2.78;;;1.98;;
28335;SDS011;15592;53.656;7.276;2023-07-29T11:42:14;3.65;;;1.73;;
28335;SDS011;15592;53.656;7.276;2023-07-29T11:44:40;4.75;;;2.30;;
28335;SDS011;15592;53.656;7.276;2023-07-29T11:47:09;8.38;;;2.92;;
28335;SDS011;15592;53.656;7.276;2023-07-29T11:49:40;5.15;;;2.35;;
28335;SDS011;15592;53.656;7.276;2023-07-29T11:52:06;7.22;;;2.40;;
28335;SDS011;15592;53.656;7.276;2023-07-29T11:54:37;4.10;;;1.83;;
28335;SDS011;15592;53.656;7.276;2023-07-29T11:57:06;2.78;;;1.77;;
28335;SDS011;15592;53.656;7.276;2023-07-29T12:02:06;4.45;;;1.73;;
28335;SDS011;15592;53.656;7.276;2023-07-29T12:04:43;2.97;;;1.70;;
28335;SDS011;15592;53.656;7.276;2023-07-29T12:07:10;2.72;;;1.80;;
28335;SDS011;15592;53.656;7.276;2023-07-29T12:09:37;3.67;;;1.88;;
28335;SDS011;15592;53.656;7.276;2023-07-29T12:12:03;2.33;;;1.50;;
28335;SDS011;15592;53.656;7.276;2023-07-29T12:14:30;3.58;;;1.85;;
28335;SDS011;15592;53.656;7.276;2023-07-29T12:16:56;3.75;;;1.58;;
28335;SDS011;15592;53.656;7.276;2023-07-29T12:19:24;2.17;;;1.60;;
28335;SDS011;15592;53.656;7.276;2023-07-29T12:21:56;3.72;;;1.52;;
28335;SDS011;15592;53.656;7.276;2023-07-29T12:24:22;2.85;;;1.58;;
28335;SDS011;15592;53.656;7.276;2023-07-29T12:26:47;6.35;;;1.67;;
28335;SDS011;15592;53.656;7.276;2023-07-29T12:29:13;2.08;;;1.55;;
28335;SDS011;15592;53.656;7.276;2023-07-29T12:31:41;3.45;;;1.70;;
28335;SDS011;15592;53.656;7.276;2023-07-29T12:34:07;4.20;;;2.17;;
28335;SDS011;15592;53.656;7.276;2023-07-29T12:36:46;2.58;;;1.65;;
28335;SDS011;15592;53.656;7.276;2023-07-29T12:41:46;22.75;;;4.88;;
28335;SDS011;15592;53.656;7.276;2023-07-29T12:44:13;19.73;;;4.88;;
28335;SDS011;15592;53.656;7.276;2023-07-29T12:46:39;18.60;;;4.60;;
28335;SDS011;15592;53.656;7.276;2023-07-29T12:49:04;14.35;;;3.80;;
28335;SDS011;15592;53.656;7.276;2023-07-29T12:51:30;11.52;;;3.00;;
28335;SDS011;15592;53.656;7.276;2023-07-29T12:53:56;7.25;;;2.38;;
28335;SDS011;15592;53.656;7.276;2023-07-29T12:56:22;7.18;;;2.50;;
28335;SDS011;15592;53.656;7.276;2023-07-29T12:58:47;5.80;;;2.15;;
28335;SDS011;15592;53.656;7.276;2023-07-29T13:01:13;7.90;;;2.83;;
28335;SDS011;15592;53.656;7.276;2023-07-29T13:03:42;9.23;;;2.87;;
28335;SDS011;15592;53.656;7.276;2023-07-29T13:06:12;5.63;;;2.58;;
28335;SDS011;15592;53.656;7.276;2023-07-29T13:08:38;6.57;;;2.50;;
28335;SDS011;15592;53.656;7.276;2023-07-29T13:11:04;11.00;;;3.05;;
28335;SDS011;15592;53.656;7.276;2023-07-29T13:13:30;13.48;;;3.15;;
28335;SDS011;15592;53.656;7.276;2023-07-29T13:15:57;12.10;;;3.30;;
28335;SDS011;15592;53.656;7.276;2023-07-29T13:18:22;11.77;;;4.00;;
28335;SDS011;15592;53.656;7.276;2023-07-29T13:20:48;11.82;;;3.55;;
28335;SDS011;15592;53.656;7.276;2023-07-29T13:23:14;9.77;;;2.65;;
28335;SDS011;15592;53.656;7.276;2023-07-29T13:25:40;14.27;;;3.83;;
28335;SDS011;15592;53.656;7.276;2023-07-29T13:28:06;11.68;;;3.67;;
28335;SDS011;15592;53.656;7.276;2023-07-29T13:30:32;13.55;;;4.28;;
28335;SDS011;15592;53.656;7.276;2023-07-29T13:32:58;9.05;;;2.92;;
28335;SDS011;15592;53.656;7.276;2023-07-29T13:35:24;7.57;;;2.85;;
28335;SDS011;15592;53.656;7.276;2023-07-29T13:37:49;7.28;;;3.22;;
28335;SDS011;15592;53.656;7.276;2023-07-29T13:40:15;6.78;;;3.10;;
28335;SDS011;15592;53.656;7.276;2023-07-29T13:42:41;4.15;;;2.75;;
28335;SDS011;15592;53.656;7.276;2023-07-29T13:45:06;5.00;;;2.60;;
28335;SDS011;15592;53.656;7.276;2023-07-29T13:47:33;5.80;;;2.40;;
28335;SDS011;15592;53.656;7.276;2023-07-29T13:49:59;3.95;;;2.47;;
28335;SDS011;15592;53.656;7.276;2023-07-29T13:52:25;6.03;;;2.90;;
28335;SDS011;15592;53.656;7.276;2023-07-29T13:54:50;5.10;;;2.60;;
28335;SDS011;15592;53.656;7.276;2023-07-29T13:57:16;4.80;;;2.78;;
28335;SDS011;15592;53.656;7.276;2023-07-29T13:59:42;5.43;;;2.90;;
28335;SDS011;15592;53.656;7.276;2023-07-29T14:02:08;5.97;;;2.70;;
28335;SDS011;15592;53.656;7.276;2023-07-29T14:04:33;4.03;;;2.80;;
28335;SDS011;15592;53.656;7.276;2023-07-29T14:06:59;6.22;;;3.10;;
28335;SDS011;15592;53.656;7.276;2023-07-29T14:09:25;8.70;;;3.25;;
28335;SDS011;15592;53.656;7.276;2023-07-29T14:11:52;6.00;;;3.03;;
28335;SDS011;15592;53.656;7.276;2023-07-29T14:14:18;5.97;;;3.15;;
28335;SDS011;15592;53.656;7.276;2023-07-29T14:16:44;8.25;;;3.38;;
28335;SDS011;15592;53.656;7.276;2023-07-29T14:19:10;8.50;;;3.38;;
28335;SDS011;15592;53.656;7.276;2023-07-29T14:21:35;5.15;;;3.35;;
28335;SDS011;15592;53.656;7.276;2023-07-29T14:24:01;8.85;;;3.40;;
28335;SDS011;15592;53.656;7.276;2023-07-29T14:26:26;6.40;;;3.25;;
28335;SDS011;15592;53.656;7.276;2023-07-29T14:28:52;8.60;;;3.20;;
28335;SDS011;15592;53.656;7.276;2023-07-29T14:31:18;9.32;;;3.42;;
28335;SDS011;15592;53.656;7.276;2023-07-29T14:33:43;9.93;;;3.25;;
28335;SDS011;15592;53.656;7.276;2023-07-29T14:36:09;8.25;;;3.30;;
28335;SDS011;15592;53.656;7.276;2023-07-29T14:38:35;7.00;;;3.40;;
28335;SDS011;15592;53.656;7.276;2023-07-29T14:41:01;8.25;;;3.40;;
28335;SDS011;15592;53.656;7.276;2023-07-29T14:43:28;8.23;;;3.63;;
28335;SDS011;15592;53.656;7.276;2023-07-29T14:45:55;7.97;;;3.63;;
28335;SDS011;15592;53.656;7.276;2023-07-29T14:48:21;11.70;;;3.65;;
28335;SDS011;15592;53.656;7.276;2023-07-29T14:50:46;6.88;;;2.83;;
28335;SDS011;15592;53.656;7.276;2023-07-29T14:53:12;8.18;;;3.38;;
28335;SDS011;15592;53.656;7.276;2023-07-29T14:55:38;7.53;;;3.22;;
28335;SDS011;15592;53.656;7.276;2023-07-29T14:58:04;8.13;;;3.30;;
28335;SDS011;15592;53.656;7.276;2023-07-29T15:00:29;7.10;;;3.40;;
28335;SDS011;15592;53.656;7.276;2023-07-29T15:02:55;9.05;;;4.00;;
28335;SDS011;15592;53.656;7.276;2023-07-29T15:05:21;8.00;;;3.33;;